H. Lee White — WZD2465 — position and weather

sailwx.info

Track history (hours):
 
Tides and Currents Weather Stations Pressure Air Temp Water Temp Dewpoint Dewpoint Depression Visibility Wind Speed Wind Dir Waves Ship Positions

H. Lee White

Owner: AMERICAN STEAMSHIP COMPANY, WILLIAMSVILLE, NY. More information available from US FCC via Universal Licensing System and Coast Guard Vessel Documentation Center.

Last reported at 2017-Nov-19 16:00 UTC. Time now 2017-Nov-19 16:08 UTC.
Position N 46°47' W 092°06'.

Length 214 m; draft 8.5 m.

Type: Cargo ship. MMSI: 366938770.

Date/timePositionNaut miles runAvg speedWind from/ knotsBaromVisibWave heightAir tempDewpointWater temp
2017-Nov-19 16:00N 46°47' W 092°06'2 4.7
2017-Nov-19 15:30N 46°45' W 092°07'1 1.4
2017-Nov-19 15:00N 46°45' W 092°08'0 0.0
2017-Nov-19 14:30N 46°45' W 092°08'0 0.0
2017-Nov-19 13:59N 46°45' W 092°08'0 0.0
2017-Nov-19 13:30N 46°45' W 092°08'0 0.0
2017-Nov-19 13:00N 46°45' W 092°08'0 0.0
2017-Nov-19 12:30N 46°45' W 092°08'0 0.0
2017-Nov-19 12:00N 46°45' W 092°08'0 0.0
2017-Nov-19 11:30N 46°45' W 092°08'0 0.0
2017-Nov-19 11:00N 46°45' W 092°08'0 0.0
2017-Nov-19 10:30N 46°45' W 092°08'0 0.0
2017-Nov-19 10:00N 46°45' W 092°08'0 0.0
2017-Nov-19 09:30N 46°45' W 092°08'0 0.0
2017-Nov-19 09:00N 46°45' W 092°08'0 0.0
2017-Nov-19 08:30N 46°45' W 092°08'0 0.0
2017-Nov-19 08:00N 46°45' W 092°08'0 0.0
2017-Nov-19 07:30N 46°45' W 092°08'0 0.0
2017-Nov-19 07:00N 46°45' W 092°08'0 0.0
2017-Nov-19 06:29N 46°45' W 092°08'0 0.0
2017-Nov-19 06:00N 46°45' W 092°08'0 0.0
2017-Nov-19 05:30N 46°45' W 092°08'0 0.0
2017-Nov-19 04:59N 46°45' W 092°08'0 0.0
2017-Nov-19 04:30N 46°45' W 092°08'0 0.0
2017-Nov-19 04:00N 46°45' W 092°08'0 0.0
2017-Nov-19 03:30N 46°45' W 092°08'0 0.7
2017-Nov-19 03:00N 46°45' W 092°08'0 0.3
2017-Nov-19 02:30N 46°45' W 092°08'0 0.3
2017-Nov-19 02:01N 46°45' W 092°08'0 0.1
2017-Nov-19 01:30N 46°45' W 092°08'0 0.1
2017-Nov-19 01:00N 46°45' W 092°08'0 0.0
2017-Nov-19 00:30N 46°45' W 092°08'0 0.0
2017-Nov-19 00:00N 46°45' W 092°08'0 0.0
2017-Nov-18 23:30N 46°45' W 092°08'0 0.0
2017-Nov-18 23:00N 46°45' W 092°08'0 0.0
2017-Nov-18 22:30N 46°45' W 092°08'0 0.0
2017-Nov-18 22:00N 46°45' W 092°08'0 0.0
2017-Nov-18 21:30N 46°45' W 092°08'0 0.0
2017-Nov-18 21:00N 46°45' W 092°08'0 0.0
2017-Nov-18 20:30N 46°45' W 092°08'0 0.0
2017-Nov-18 20:00N 46°45' W 092°08'0 0.0
2017-Nov-18 19:30N 46°45' W 092°08'0 0.0
2017-Nov-18 19:00N 46°45' W 092°08'0 0.8
2017-Nov-18 18:30N 46°45' W 092°07'1 2.7
2017-Nov-18 18:00N 46°46' W 092°06'0 0.0
2017-Nov-18 17:30N 46°46' W 092°06'0 0.0
2017-Nov-18 17:00N 46°46' W 092°06'2 3.6
2017-Nov-18 16:30N 46°47' W 092°04'611.2
2017-Nov-18 16:00N 46°50' W 091°57'612.4
2017-Nov-18 15:30N 46°53' W 091°49'612.5
2017-Nov-18 15:00N 46°56' W 091°41'8 7.8
2017-Nov-18 14:00N 46°54' W 091°30'4514.9 310 / 141009.010.8 -0.0 3.8
2017-Nov-18 11:00N 47°12' W 090°30'6210.4 340 / 101007.1 5.4 6.6 3.8
2017-Nov-18 05:00N 47°24' W 089°00'3316.5 350 / 121003.010.8 2.7 3.3
2017-Nov-18 03:00N 47°30' W 088°12'27 9.1 280 / 131005.0 5.4 2.2 3.8
2017-Nov-18 00:00N 47°18' W 087°36'12210.2 240 / 81007.1 2.2 -9.9 3.3
2017-Nov-17 12:00N 46°36' W 084°48'66 7.4 130 / 231023.3 5.4 -3.3 8.8
2017-Nov-17 03:02N 45°46' W 083°45'011.1
2017-Nov-17 03:00N 45°45' W 083°45'510.9
2017-Nov-17 02:30N 45°41' W 083°40'510.8
2017-Nov-17 02:00N 45°37' W 083°36'510.7
2017-Nov-17 01:30N 45°32' W 083°31'510.6
2017-Nov-17 01:00N 45°28' W 083°27'5 9.5
2017-Nov-17 00:30N 45°24' W 083°23'17 6.8
2017-Nov-16 22:00N 45°12' W 083°06'49 9.7 320 / 301019.2 5.4 1.1
2017-Nov-16 17:00N 44°24' W 082°54'7 7.4 310 / 371013.2 2.2 1.6 3.3
2017-Nov-16 16:00N 44°18' W 082°48'37 9.2 310 / 401014.0 5.4 2.7 3.3
2017-Nov-16 12:00N 43°48' W 082°18'24 6.1 260 / 381007.7 5.4 3.8 4.4
2017-Nov-16 08:00N 43°24' W 082°12'95 2.3 250 / 201005.710.8 6.1 3.8
2017-Nov-14 15:00N 41°54' W 082°54'34 1.1 230 / 6994.910.8 6.6 6.6
2017-Nov-13 08:00N 41°42' W 082°12'15411.0 010 / 61026.027.0 6.1 8.8
2017-Nov-12 18:00N 43°00' W 079°12'83 5.2 190 / 61026.710.8 6.1 8.3
2017-Nov-12 02:00N 43°36' W 077°30'8510.6 130 / 141045.010.8 2.2 11.1
2017-Nov-11 18:00N 44°18' W 075°48'84 6.4 030 / 31030.510.8 -0.0 12.7
2017-Nov-11 05:00N 45°12' W 074°18'381.3 270 / 151032.527.0 -8.3 7.7
2017-Nov-11 04:57N 45°14' W 074°14'4 9.9
2017-Nov-11 04:30N 45°14' W 074°08'4 8.1
2017-Nov-11 04:00N 45°13' W 074°02'5 9.6
2017-Nov-11 03:30N 45°17' W 073°57'2 3.8
2017-Nov-11 03:00N 45°18' W 073°56'0 1.0
2017-Nov-11 02:30N 45°19' W 073°55'0 0.6
2017-Nov-11 02:00N 45°19' W 073°55'0 0.2
2017-Nov-11 01:30N 45°19' W 073°55'0 0.6
2017-Nov-11 01:00N 45°19' W 073°55'0 0.1
2017-Nov-11 00:30N 45°19' W 073°55'0 0.0
2017-Nov-11 00:00N 45°19' W 073°55'0 0.0
2017-Nov-10 23:30N 45°19' W 073°55'0 0.0
2017-Nov-10 23:00N 45°19' W 073°55'0 0.0
2017-Nov-10 22:30N 45°19' W 073°55'0 0.0
2017-Nov-10 22:00N 45°19' W 073°55'0 0.1
2017-Nov-10 21:30N 45°19' W 073°55'2 4.3
2017-Nov-10 21:00N 45°21' W 073°53'510.3
2017-Nov-10 20:30N 45°24' W 073°47'4 8.5
2017-Nov-10 20:00N 45°25' W 073°41'3 6.1
2017-Nov-10 19:30N 45°24' W 073°37'2 4.2
2017-Nov-10 19:00N 45°24' W 073°34'0 0.7
2017-Nov-10 18:30N 45°24' W 073°33'3 5.3
2017-Nov-10 17:57N 45°26' W 073°30'4 2.7
2017-Nov-10 16:39N 45°30' W 073°31'94 8.1
2017-Nov-10 05:00N 46°36' W 071°54'   160 / 221035.510.8 3.8 6.6
Track history (hours):
 
Tides and Currents Weather Stations Pressure Air Temp Water Temp Dewpoint Dewpoint Depression Visibility Wind Speed Wind Dir Waves Ship Positions

H. Lee White

Owner: AMERICAN STEAMSHIP COMPANY, WILLIAMSVILLE, NY. More information available from US FCC via Universal Licensing System and Coast Guard Vessel Documentation Center.

Last reported at 2017-Nov-19 16:00 UTC. Time now 2017-Nov-19 16:08 UTC.
Position N 46°47' W 092°06'.

Length 214 m; draft 8.5 m.

Type: Cargo ship. MMSI: 366938770.

Date/timePositionNaut miles runAvg speedWind from/ knotsBaromVisibWave heightAir tempDewpointWater temp
2017-Nov-19 16:00N 46°47' W 092°06'2 4.7
2017-Nov-19 15:30N 46°45' W 092°07'1 1.4
2017-Nov-19 15:00N 46°45' W 092°08'0 0.0
2017-Nov-19 14:30N 46°45' W 092°08'0 0.0
2017-Nov-19 13:59N 46°45' W 092°08'0 0.0
2017-Nov-19 13:30N 46°45' W 092°08'0 0.0
2017-Nov-19 13:00N 46°45' W 092°08'0 0.0
2017-Nov-19 12:30N 46°45' W 092°08'0 0.0
2017-Nov-19 12:00N 46°45' W 092°08'0 0.0
2017-Nov-19 11:30N 46°45' W 092°08'0 0.0
2017-Nov-19 11:00N 46°45' W 092°08'0 0.0
2017-Nov-19 10:30N 46°45' W 092°08'0 0.0
2017-Nov-19 10:00N 46°45' W 092°08'0 0.0
2017-Nov-19 09:30N 46°45' W 092°08'0 0.0
2017-Nov-19 09:00N 46°45' W 092°08'0 0.0
2017-Nov-19 08:30N 46°45' W 092°08'0 0.0
2017-Nov-19 08:00N 46°45' W 092°08'0 0.0
2017-Nov-19 07:30N 46°45' W 092°08'0 0.0
2017-Nov-19 07:00N 46°45' W 092°08'0 0.0
2017-Nov-19 06:29N 46°45' W 092°08'0 0.0
2017-Nov-19 06:00N 46°45' W 092°08'0 0.0
2017-Nov-19 05:30N 46°45' W 092°08'0 0.0
2017-Nov-19 04:59N 46°45' W 092°08'0 0.0
2017-Nov-19 04:30N 46°45' W 092°08'0 0.0
2017-Nov-19 04:00N 46°45' W 092°08'0 0.0
2017-Nov-19 03:30N 46°45' W 092°08'0 0.7
2017-Nov-19 03:00N 46°45' W 092°08'0 0.3
2017-Nov-19 02:30N 46°45' W 092°08'0 0.3
2017-Nov-19 02:01N 46°45' W 092°08'0 0.1
2017-Nov-19 01:30N 46°45' W 092°08'0 0.1
2017-Nov-19 01:00N 46°45' W 092°08'0 0.0
2017-Nov-19 00:30N 46°45' W 092°08'0 0.0
2017-Nov-19 00:00N 46°45' W 092°08'0 0.0
2017-Nov-18 23:30N 46°45' W 092°08'0 0.0
2017-Nov-18 23:00N 46°45' W 092°08'0 0.0
2017-Nov-18 22:30N 46°45' W 092°08'0 0.0
2017-Nov-18 22:00N 46°45' W 092°08'0 0.0
2017-Nov-18 21:30N 46°45' W 092°08'0 0.0
2017-Nov-18 21:00N 46°45' W 092°08'0 0.0
2017-Nov-18 20:30N 46°45' W 092°08'0 0.0
2017-Nov-18 20:00N 46°45' W 092°08'0 0.0
2017-Nov-18 19:30N 46°45' W 092°08'0 0.0
2017-Nov-18 19:00N 46°45' W 092°08'0 0.8
2017-Nov-18 18:30N 46°45' W 092°07'1 2.7
2017-Nov-18 18:00N 46°46' W 092°06'0 0.0
2017-Nov-18 17:30N 46°46' W 092°06'0 0.0
2017-Nov-18 17:00N 46°46' W 092°06'2 3.6
2017-Nov-18 16:30N 46°47' W 092°04'611.2
2017-Nov-18 16:00N 46°50' W 091°57'612.4
2017-Nov-18 15:30N 46°53' W 091°49'612.5
2017-Nov-18 15:00N 46°56' W 091°41'8 7.8
2017-Nov-18 14:00N 46°54' W 091°30'4514.9 310 / 141009.010.8 -0.0 3.8
2017-Nov-18 11:00N 47°12' W 090°30'6210.4 340 / 101007.1 5.4 6.6 3.8
2017-Nov-18 05:00N 47°24' W 089°00'3316.5 350 / 121003.010.8 2.7 3.3
2017-Nov-18 03:00N 47°30' W 088°12'27 9.1 280 / 131005.0 5.4 2.2 3.8
2017-Nov-18 00:00N 47°18' W 087°36'12210.2 240 / 81007.1 2.2 -9.9 3.3
2017-Nov-17 12:00N 46°36' W 084°48'66 7.4 130 / 231023.3 5.4 -3.3 8.8
2017-Nov-17 03:02N 45°46' W 083°45'011.1
2017-Nov-17 03:00N 45°45' W 083°45'510.9
2017-Nov-17 02:30N 45°41' W 083°40'510.8
2017-Nov-17 02:00N 45°37' W 083°36'510.7
2017-Nov-17 01:30N 45°32' W 083°31'510.6
2017-Nov-17 01:00N 45°28' W 083°27'5 9.5
2017-Nov-17 00:30N 45°24' W 083°23'17 6.8
2017-Nov-16 22:00N 45°12' W 083°06'49 9.7 320 / 301019.2 5.4 1.1
2017-Nov-16 17:00N 44°24' W 082°54'7 7.4 310 / 371013.2 2.2 1.6 3.3
2017-Nov-16 16:00N 44°18' W 082°48'37 9.2 310 / 401014.0 5.4 2.7 3.3
2017-Nov-16 12:00N 43°48' W 082°18'24 6.1 260 / 381007.7 5.4 3.8 4.4
2017-Nov-16 08:00N 43°24' W 082°12'95 2.3 250 / 201005.710.8 6.1 3.8
2017-Nov-14 15:00N 41°54' W 082°54'34 1.1 230 / 6994.910.8 6.6 6.6
2017-Nov-13 08:00N 41°42' W 082°12'15411.0 010 / 61026.027.0 6.1 8.8
2017-Nov-12 18:00N 43°00' W 079°12'83 5.2 190 / 61026.710.8 6.1 8.3
2017-Nov-12 02:00N 43°36' W 077°30'8510.6 130 / 141045.010.8 2.2 11.1
2017-Nov-11 18:00N 44°18' W 075°48'84 6.4 030 / 31030.510.8 -0.0 12.7
2017-Nov-11 05:00N 45°12' W 074°18'381.3 270 / 151032.527.0 -8.3 7.7
2017-Nov-11 04:57N 45°14' W 074°14'4 9.9
2017-Nov-11 04:30N 45°14' W 074°08'4 8.1
2017-Nov-11 04:00N 45°13' W 074°02'5 9.6
2017-Nov-11 03:30N 45°17' W 073°57'2 3.8
2017-Nov-11 03:00N 45°18' W 073°56'0 1.0
2017-Nov-11 02:30N 45°19' W 073°55'0 0.6
2017-Nov-11 02:00N 45°19' W 073°55'0 0.2
2017-Nov-11 01:30N 45°19' W 073°55'0 0.6
2017-Nov-11 01:00N 45°19' W 073°55'0 0.1
2017-Nov-11 00:30N 45°19' W 073°55'0 0.0
2017-Nov-11 00:00N 45°19' W 073°55'0 0.0
2017-Nov-10 23:30N 45°19' W 073°55'0 0.0
2017-Nov-10 23:00N 45°19' W 073°55'0 0.0
2017-Nov-10 22:30N 45°19' W 073°55'0 0.0
2017-Nov-10 22:00N 45°19' W 073°55'0 0.1
2017-Nov-10 21:30N 45°19' W 073°55'2 4.3
2017-Nov-10 21:00N 45°21' W 073°53'510.3
2017-Nov-10 20:30N 45°24' W 073°47'4 8.5
2017-Nov-10 20:00N 45°25' W 073°41'3 6.1
2017-Nov-10 19:30N 45°24' W 073°37'2 4.2
2017-Nov-10 19:00N 45°24' W 073°34'0 0.7
2017-Nov-10 18:30N 45°24' W 073°33'3 5.3
2017-Nov-10 17:57N 45°26' W 073°30'4 2.7
2017-Nov-10 16:39N 45°30' W 073°31'94 8.1
2017-Nov-10 05:00N 46°36' W 071°54'   160 / 221035.510.8 3.8 6.6

Dump ship's entire track history